sensor_id;sensor_type;location;lat;lon;timestamp;P1;durP1;ratioP1;P2;durP2;ratioP2
67498;SDS011;54345;42.670;23.218;2022-12-20T00:01:12;23.33;;;13.90;;
67498;SDS011;54345;42.670;23.218;2022-12-20T00:03:39;29.07;;;15.90;;
67498;SDS011;54345;42.670;23.218;2022-12-20T00:06:06;26.33;;;14.73;;
67498;SDS011;54345;42.670;23.218;2022-12-20T00:08:32;24.03;;;15.07;;
67498;SDS011;54345;42.670;23.218;2022-12-20T00:11:00;23.97;;;14.63;;
67498;SDS011;54345;42.670;23.218;2022-12-20T00:13:27;24.83;;;14.30;;
67498;SDS011;54345;42.670;23.218;2022-12-20T00:16:09;27.50;;;14.50;;
67498;SDS011;54345;42.670;23.218;2022-12-20T00:18:37;27.67;;;15.33;;
67498;SDS011;54345;42.670;23.218;2022-12-20T00:21:05;26.97;;;15.37;;
67498;SDS011;54345;42.670;23.218;2022-12-20T00:23:32;24.67;;;14.87;;
67498;SDS011;54345;42.670;23.218;2022-12-20T00:28:35;22.63;;;13.67;;
67498;SDS011;54345;42.670;23.218;2022-12-20T00:31:01;24.40;;;15.00;;
67498;SDS011;54345;42.670;23.218;2022-12-20T00:33:28;21.77;;;13.10;;
67498;SDS011;54345;42.670;23.218;2022-12-20T00:35:54;23.50;;;13.17;;
67498;SDS011;54345;42.670;23.218;2022-12-20T00:38:21;25.87;;;13.70;;
67498;SDS011;54345;42.670;23.218;2022-12-20T00:41:10;23.77;;;13.80;;
67498;SDS011;54345;42.670;23.218;2022-12-20T00:43:40;22.47;;;13.73;;
67498;SDS011;54345;42.670;23.218;2022-12-20T00:46:06;22.07;;;13.63;;
67498;SDS011;54345;42.670;23.218;2022-12-20T00:48:33;22.53;;;13.40;;
67498;SDS011;54345;42.670;23.218;2022-12-20T00:51:00;27.77;;;14.90;;
67498;SDS011;54345;42.670;23.218;2022-12-20T00:53:28;19.00;;;13.17;;
67498;SDS011;54345;42.670;23.218;2022-12-20T00:55:54;25.53;;;14.43;;
67498;SDS011;54345;42.670;23.218;2022-12-20T00:58:20;20.50;;;13.13;;
67498;SDS011;54345;42.670;23.218;2022-12-20T01:00:45;19.00;;;13.60;;
67498;SDS011;54345;42.670;23.218;2022-12-20T01:03:11;22.50;;;13.17;;
67498;SDS011;54345;42.670;23.218;2022-12-20T01:05:37;24.37;;;14.73;;
67498;SDS011;54345;42.670;23.218;2022-12-20T01:08:04;22.43;;;13.37;;
67498;SDS011;54345;42.670;23.218;2022-12-20T01:10:30;23.03;;;13.27;;
67498;SDS011;54345;42.670;23.218;2022-12-20T01:12:56;24.67;;;14.93;;
67498;SDS011;54345;42.670;23.218;2022-12-20T01:15:21;20.27;;;12.77;;
67498;SDS011;54345;42.670;23.218;2022-12-20T01:17:47;22.57;;;13.40;;
67498;SDS011;54345;42.670;23.218;2022-12-20T01:20:13;20.50;;;11.63;;
67498;SDS011;54345;42.670;23.218;2022-12-20T01:22:39;21.17;;;11.93;;
67498;SDS011;54345;42.670;23.218;2022-12-20T01:25:05;26.90;;;14.47;;
67498;SDS011;54345;42.670;23.218;2022-12-20T01:27:31;24.80;;;13.77;;
67498;SDS011;54345;42.670;23.218;2022-12-20T01:29:57;21.90;;;12.63;;
67498;SDS011;54345;42.670;23.218;2022-12-20T01:32:23;22.80;;;12.53;;
67498;SDS011;54345;42.670;23.218;2022-12-20T01:34:49;19.90;;;11.70;;
67498;SDS011;54345;42.670;23.218;2022-12-20T01:37:14;23.87;;;12.43;;
67498;SDS011;54345;42.670;23.218;2022-12-20T01:39:40;19.03;;;11.70;;
67498;SDS011;54345;42.670;23.218;2022-12-20T01:42:06;19.03;;;11.90;;
67498;SDS011;54345;42.670;23.218;2022-12-20T01:47:05;20.40;;;11.80;;
67498;SDS011;54345;42.670;23.218;2022-12-20T01:49:35;24.20;;;13.13;;
67498;SDS011;54345;42.670;23.218;2022-12-20T01:52:12;20.13;;;11.60;;
67498;SDS011;54345;42.670;23.218;2022-12-20T01:54:44;21.23;;;11.57;;
67498;SDS011;54345;42.670;23.218;2022-12-20T01:57:17;23.20;;;12.93;;
67498;SDS011;54345;42.670;23.218;2022-12-20T01:59:53;21.20;;;12.30;;
67498;SDS011;54345;42.670;23.218;2022-12-20T02:02:20;26.43;;;14.30;;
67498;SDS011;54345;42.670;23.218;2022-12-20T02:04:46;23.60;;;13.70;;
67498;SDS011;54345;42.670;23.218;2022-12-20T02:07:13;21.57;;;13.33;;
67498;SDS011;54345;42.670;23.218;2022-12-20T02:09:48;18.77;;;10.87;;
67498;SDS011;54345;42.670;23.218;2022-12-20T02:12:19;18.10;;;11.37;;
67498;SDS011;54345;42.670;23.218;2022-12-20T02:25:48;29.63;;;14.50;;
67498;SDS011;54345;42.670;23.218;2022-12-20T02:31:42;21.87;;;12.33;;
67498;SDS011;54345;42.670;23.218;2022-12-20T02:34:14;24.20;;;12.60;;
67498;SDS011;54345;42.670;23.218;2022-12-20T02:36:41;19.53;;;11.17;;
67498;SDS011;54345;42.670;23.218;2022-12-20T02:39:08;18.13;;;10.87;;
67498;SDS011;54345;42.670;23.218;2022-12-20T02:41:46;21.00;;;11.87;;
67498;SDS011;54345;42.670;23.218;2022-12-20T02:44:16;17.67;;;11.13;;
67498;SDS011;54345;42.670;23.218;2022-12-20T02:47:03;24.17;;;11.30;;
67498;SDS011;54345;42.670;23.218;2022-12-20T02:49:33;17.83;;;10.80;;
67498;SDS011;54345;42.670;23.218;2022-12-20T02:52:06;21.10;;;12.13;;
67498;SDS011;54345;42.670;23.218;2022-12-20T02:54:33;21.80;;;12.13;;
67498;SDS011;54345;42.670;23.218;2022-12-20T02:57:04;23.63;;;12.77;;
67498;SDS011;54345;42.670;23.218;2022-12-20T03:00:23;17.40;;;11.23;;
67498;SDS011;54345;42.670;23.218;2022-12-20T03:02:26;20.80;;;12.20;;
67498;SDS011;54345;42.670;23.218;2022-12-20T03:04:53;19.87;;;10.27;;
67498;SDS011;54345;42.670;23.218;2022-12-20T03:07:19;21.93;;;11.17;;
67498;SDS011;54345;42.670;23.218;2022-12-20T03:09:46;22.83;;;12.27;;
67498;SDS011;54345;42.670;23.218;2022-12-20T03:12:12;22.43;;;12.43;;
67498;SDS011;54345;42.670;23.218;2022-12-20T03:14:40;24.83;;;13.20;;
67498;SDS011;54345;42.670;23.218;2022-12-20T03:17:06;22.73;;;12.83;;
67498;SDS011;54345;42.670;23.218;2022-12-20T03:19:32;20.30;;;13.17;;
67498;SDS011;54345;42.670;23.218;2022-12-20T03:21:58;20.13;;;12.20;;
67498;SDS011;54345;42.670;23.218;2022-12-20T03:24:24;21.03;;;13.17;;
67498;SDS011;54345;42.670;23.218;2022-12-20T03:26:50;19.23;;;11.83;;
67498;SDS011;54345;42.670;23.218;2022-12-20T03:29:16;22.67;;;13.20;;
67498;SDS011;54345;42.670;23.218;2022-12-20T03:31:42;22.27;;;13.00;;
67498;SDS011;54345;42.670;23.218;2022-12-20T03:34:07;17.87;;;11.10;;
67498;SDS011;54345;42.670;23.218;2022-12-20T03:36:33;18.53;;;11.37;;
67498;SDS011;54345;42.670;23.218;2022-12-20T03:38:59;18.70;;;11.20;;
67498;SDS011;54345;42.670;23.218;2022-12-20T03:41:25;19.47;;;12.20;;
67498;SDS011;54345;42.670;23.218;2022-12-20T03:43:51;17.60;;;10.50;;
67498;SDS011;54345;42.670;23.218;2022-12-20T03:46:16;21.13;;;11.03;;
67498;SDS011;54345;42.670;23.218;2022-12-20T03:48:42;25.37;;;12.73;;
67498;SDS011;54345;42.670;23.218;2022-12-20T03:51:08;22.30;;;10.30;;
67498;SDS011;54345;42.670;23.218;2022-12-20T03:53:34;18.00;;;10.07;;
67498;SDS011;54345;42.670;23.218;2022-12-20T03:56:00;20.47;;;9.93;;
67498;SDS011;54345;42.670;23.218;2022-12-20T03:58:25;17.23;;;9.77;;
67498;SDS011;54345;42.670;23.218;2022-12-20T04:00:51;15.90;;;9.67;;
67498;SDS011;54345;42.670;23.218;2022-12-20T04:03:17;20.13;;;11.17;;
67498;SDS011;54345;42.670;23.218;2022-12-20T04:05:42;24.90;;;12.17;;
67498;SDS011;54345;42.670;23.218;2022-12-20T04:08:08;18.13;;;10.53;;
67498;SDS011;54345;42.670;23.218;2022-12-20T04:10:33;15.83;;;10.17;;
67498;SDS011;54345;42.670;23.218;2022-12-20T04:13:22;19.67;;;10.57;;
67498;SDS011;54345;42.670;23.218;2022-12-20T04:15:47;23.30;;;13.13;;
67498;SDS011;54345;42.670;23.218;2022-12-20T04:18:13;21.77;;;11.53;;
67498;SDS011;54345;42.670;23.218;2022-12-20T04:20:38;28.13;;;13.17;;
67498;SDS011;54345;42.670;23.218;2022-12-20T04:23:04;19.20;;;12.17;;
67498;SDS011;54345;42.670;23.218;2022-12-20T04:25:30;27.30;;;14.30;;
67498;SDS011;54345;42.670;23.218;2022-12-20T04:27:55;21.93;;;12.73;;
67498;SDS011;54345;42.670;23.218;2022-12-20T04:30:21;19.57;;;12.13;;
67498;SDS011;54345;42.670;23.218;2022-12-20T04:32:46;23.37;;;13.73;;
67498;SDS011;54345;42.670;23.218;2022-12-20T04:35:12;22.73;;;11.43;;
67498;SDS011;54345;42.670;23.218;2022-12-20T04:37:38;19.23;;;12.93;;
67498;SDS011;54345;42.670;23.218;2022-12-20T04:40:04;31.10;;;15.80;;
67498;SDS011;54345;42.670;23.218;2022-12-20T04:42:30;27.33;;;13.00;;
67498;SDS011;54345;42.670;23.218;2022-12-20T04:44:56;27.83;;;14.80;;
67498;SDS011;54345;42.670;23.218;2022-12-20T04:47:22;27.00;;;13.97;;
67498;SDS011;54345;42.670;23.218;2022-12-20T04:49:47;23.30;;;13.67;;
67498;SDS011;54345;42.670;23.218;2022-12-20T04:52:13;26.10;;;14.40;;
67498;SDS011;54345;42.670;23.218;2022-12-20T04:54:57;27.63;;;13.43;;
67498;SDS011;54345;42.670;23.218;2022-12-20T04:57:23;28.10;;;15.60;;
67498;SDS011;54345;42.670;23.218;2022-12-20T04:59:48;27.23;;;14.10;;
67498;SDS011;54345;42.670;23.218;2022-12-20T05:02:14;20.83;;;13.43;;
67498;SDS011;54345;42.670;23.218;2022-12-20T05:04:39;25.20;;;14.03;;
67498;SDS011;54345;42.670;23.218;2022-12-20T05:07:05;23.17;;;13.07;;
67498;SDS011;54345;42.670;23.218;2022-12-20T05:09:30;21.57;;;14.00;;
67498;SDS011;54345;42.670;23.218;2022-12-20T05:11:56;23.03;;;13.47;;
67498;SDS011;54345;42.670;23.218;2022-12-20T05:14:21;25.57;;;14.77;;
67498;SDS011;54345;42.670;23.218;2022-12-20T05:16:47;24.67;;;15.10;;
67498;SDS011;54345;42.670;23.218;2022-12-20T05:19:12;26.27;;;14.77;;
67498;SDS011;54345;42.670;23.218;2022-12-20T05:21:38;32.43;;;17.23;;
67498;SDS011;54345;42.670;23.218;2022-12-20T05:24:22;32.90;;;18.27;;
67498;SDS011;54345;42.670;23.218;2022-12-20T05:27:06;36.70;;;19.70;;
67498;SDS011;54345;42.670;23.218;2022-12-20T05:29:32;48.90;;;21.00;;
67498;SDS011;54345;42.670;23.218;2022-12-20T05:31:57;34.93;;;19.60;;
67498;SDS011;54345;42.670;23.218;2022-12-20T05:34:23;34.73;;;18.07;;
67498;SDS011;54345;42.670;23.218;2022-12-20T05:36:48;49.43;;;22.97;;
67498;SDS011;54345;42.670;23.218;2022-12-20T05:39:14;43.83;;;20.27;;
67498;SDS011;54345;42.670;23.218;2022-12-20T05:41:40;27.70;;;16.87;;
67498;SDS011;54345;42.670;23.218;2022-12-20T05:44:05;31.80;;;18.83;;
67498;SDS011;54345;42.670;23.218;2022-12-20T05:46:32;30.40;;;17.77;;
67498;SDS011;54345;42.670;23.218;2022-12-20T05:48:57;33.57;;;17.43;;
67498;SDS011;54345;42.670;23.218;2022-12-20T05:51:23;35.47;;;18.67;;
67498;SDS011;54345;42.670;23.218;2022-12-20T05:53:49;34.33;;;17.50;;
67498;SDS011;54345;42.670;23.218;2022-12-20T05:56:14;35.37;;;17.83;;
67498;SDS011;54345;42.670;23.218;2022-12-20T05:58:40;30.37;;;17.10;;
67498;SDS011;54345;42.670;23.218;2022-12-20T06:01:06;26.67;;;16.80;;
67498;SDS011;54345;42.670;23.218;2022-12-20T06:03:32;30.80;;;17.57;;
67498;SDS011;54345;42.670;23.218;2022-12-20T06:05:58;28.70;;;16.30;;
67498;SDS011;54345;42.670;23.218;2022-12-20T06:08:24;25.80;;;15.53;;
67498;SDS011;54345;42.670;23.218;2022-12-20T06:10:49;29.17;;;17.23;;
67498;SDS011;54345;42.670;23.218;2022-12-20T06:13:15;32.97;;;18.53;;
67498;SDS011;54345;42.670;23.218;2022-12-20T06:15:41;29.37;;;16.83;;
67498;SDS011;54345;42.670;23.218;2022-12-20T06:18:07;30.17;;;17.70;;
67498;SDS011;54345;42.670;23.218;2022-12-20T06:20:33;34.63;;;17.90;;
67498;SDS011;54345;42.670;23.218;2022-12-20T06:22:59;27.93;;;16.70;;
67498;SDS011;54345;42.670;23.218;2022-12-20T06:25:26;33.23;;;18.03;;
67498;SDS011;54345;42.670;23.218;2022-12-20T06:27:52;32.73;;;18.90;;
67498;SDS011;54345;42.670;23.218;2022-12-20T06:30:18;33.57;;;17.27;;
67498;SDS011;54345;42.670;23.218;2022-12-20T06:32:44;24.10;;;15.40;;
67498;SDS011;54345;42.670;23.218;2022-12-20T06:35:09;27.63;;;16.03;;
67498;SDS011;54345;42.670;23.218;2022-12-20T06:37:35;32.73;;;17.40;;
67498;SDS011;54345;42.670;23.218;2022-12-20T06:40:02;25.30;;;15.40;;
67498;SDS011;54345;42.670;23.218;2022-12-20T06:42:29;29.47;;;16.97;;
67498;SDS011;54345;42.670;23.218;2022-12-20T06:44:54;28.70;;;14.80;;
67498;SDS011;54345;42.670;23.218;2022-12-20T06:47:20;28.10;;;15.23;;
67498;SDS011;54345;42.670;23.218;2022-12-20T06:49:45;29.00;;;14.70;;
67498;SDS011;54345;42.670;23.218;2022-12-20T06:52:11;26.00;;;15.67;;
67498;SDS011;54345;42.670;23.218;2022-12-20T06:54:37;25.87;;;15.07;;
67498;SDS011;54345;42.670;23.218;2022-12-20T06:57:02;23.50;;;15.00;;
67498;SDS011;54345;42.670;23.218;2022-12-20T06:59:28;29.23;;;15.83;;
67498;SDS011;54345;42.670;23.218;2022-12-20T07:01:53;30.70;;;16.57;;
67498;SDS011;54345;42.670;23.218;2022-12-20T07:04:19;26.10;;;15.10;;
67498;SDS011;54345;42.670;23.218;2022-12-20T07:06:45;40.83;;;18.10;;
67498;SDS011;54345;42.670;23.218;2022-12-20T07:09:10;25.53;;;15.97;;
67498;SDS011;54345;42.670;23.218;2022-12-20T07:11:36;25.73;;;13.90;;
67498;SDS011;54345;42.670;23.218;2022-12-20T07:14:02;33.57;;;17.30;;
67498;SDS011;54345;42.670;23.218;2022-12-20T07:16:27;30.30;;;15.90;;
67498;SDS011;54345;42.670;23.218;2022-12-20T07:18:53;30.07;;;16.60;;
67498;SDS011;54345;42.670;23.218;2022-12-20T07:21:19;26.50;;;15.47;;
67498;SDS011;54345;42.670;23.218;2022-12-20T07:23:45;31.03;;;17.70;;
67498;SDS011;54345;42.670;23.218;2022-12-20T07:26:11;31.77;;;16.90;;
67498;SDS011;54345;42.670;23.218;2022-12-20T07:28:38;35.10;;;17.73;;
67498;SDS011;54345;42.670;23.218;2022-12-20T07:31:04;36.67;;;15.43;;
67498;SDS011;54345;42.670;23.218;2022-12-20T07:33:30;28.27;;;15.13;;
67498;SDS011;54345;42.670;23.218;2022-12-20T07:36:03;25.83;;;13.97;;
67498;SDS011;54345;42.670;23.218;2022-12-20T07:38:31;25.33;;;13.53;;
67498;SDS011;54345;42.670;23.218;2022-12-20T07:40:58;24.20;;;14.93;;
67498;SDS011;54345;42.670;23.218;2022-12-20T07:43:23;28.17;;;15.40;;
67498;SDS011;54345;42.670;23.218;2022-12-20T07:45:52;28.77;;;14.07;;
67498;SDS011;54345;42.670;23.218;2022-12-20T07:48:20;28.70;;;15.40;;
67498;SDS011;54345;42.670;23.218;2022-12-20T07:50:45;30.13;;;15.80;;
67498;SDS011;54345;42.670;23.218;2022-12-20T07:53:11;26.73;;;14.53;;
67498;SDS011;54345;42.670;23.218;2022-12-20T07:55:37;25.40;;;15.33;;
67498;SDS011;54345;42.670;23.218;2022-12-20T07:58:05;31.03;;;16.37;;
67498;SDS011;54345;42.670;23.218;2022-12-20T08:00:34;35.30;;;15.57;;
67498;SDS011;54345;42.670;23.218;2022-12-20T08:03:04;33.97;;;17.57;;
67498;SDS011;54345;42.670;23.218;2022-12-20T08:05:34;30.83;;;15.80;;
67498;SDS011;54345;42.670;23.218;2022-12-20T08:08:03;27.23;;;14.00;;
67498;SDS011;54345;42.670;23.218;2022-12-20T08:10:30;20.97;;;12.70;;
67498;SDS011;54345;42.670;23.218;2022-12-20T08:12:56;30.60;;;15.80;;
67498;SDS011;54345;42.670;23.218;2022-12-20T08:15:23;29.37;;;13.73;;
67498;SDS011;54345;42.670;23.218;2022-12-20T08:17:49;19.60;;;12.33;;
67498;SDS011;54345;42.670;23.218;2022-12-20T08:20:15;22.43;;;11.70;;
67498;SDS011;54345;42.670;23.218;2022-12-20T08:22:41;27.53;;;14.33;;
67498;SDS011;54345;42.670;23.218;2022-12-20T08:25:07;22.20;;;12.67;;
67498;SDS011;54345;42.670;23.218;2022-12-20T08:27:32;24.27;;;13.67;;
67498;SDS011;54345;42.670;23.218;2022-12-20T08:29:58;28.20;;;13.30;;
67498;SDS011;54345;42.670;23.218;2022-12-20T08:32:24;21.20;;;11.53;;
67498;SDS011;54345;42.670;23.218;2022-12-20T08:34:52;30.73;;;14.30;;
67498;SDS011;54345;42.670;23.218;2022-12-20T08:37:17;20.13;;;12.77;;
67498;SDS011;54345;42.670;23.218;2022-12-20T08:39:43;26.70;;;14.43;;
67498;SDS011;54345;42.670;23.218;2022-12-20T08:42:09;28.73;;;13.70;;
67498;SDS011;54345;42.670;23.218;2022-12-20T08:44:35;21.67;;;13.07;;
67498;SDS011;54345;42.670;23.218;2022-12-20T08:47:01;33.47;;;15.07;;
67498;SDS011;54345;42.670;23.218;2022-12-20T08:49:26;24.50;;;13.37;;
67498;SDS011;54345;42.670;23.218;2022-12-20T08:51:52;23.00;;;13.33;;
67498;SDS011;54345;42.670;23.218;2022-12-20T08:54:18;20.60;;;12.67;;
67498;SDS011;54345;42.670;23.218;2022-12-20T08:56:43;24.77;;;13.67;;
67498;SDS011;54345;42.670;23.218;2022-12-20T08:59:09;29.43;;;13.93;;
67498;SDS011;54345;42.670;23.218;2022-12-20T09:01:34;22.40;;;11.37;;
67498;SDS011;54345;42.670;23.218;2022-12-20T09:04:00;29.80;;;14.57;;
67498;SDS011;54345;42.670;23.218;2022-12-20T09:06:26;29.47;;;14.20;;
67498;SDS011;54345;42.670;23.218;2022-12-20T09:08:52;26.23;;;13.67;;
67498;SDS011;54345;42.670;23.218;2022-12-20T09:11:18;30.07;;;14.80;;
67498;SDS011;54345;42.670;23.218;2022-12-20T09:13:47;39.67;;;15.83;;
67498;SDS011;54345;42.670;23.218;2022-12-20T09:16:15;22.70;;;13.80;;
67498;SDS011;54345;42.670;23.218;2022-12-20T09:18:42;28.90;;;16.00;;
67498;SDS011;54345;42.670;23.218;2022-12-20T09:21:08;24.43;;;13.47;;
67498;SDS011;54345;42.670;23.218;2022-12-20T09:23:35;23.70;;;13.10;;
67498;SDS011;54345;42.670;23.218;2022-12-20T09:26:02;26.10;;;13.23;;
67498;SDS011;54345;42.670;23.218;2022-12-20T09:28:34;20.93;;;12.00;;
67498;SDS011;54345;42.670;23.218;2022-12-20T09:31:04;23.50;;;13.57;;
67498;SDS011;54345;42.670;23.218;2022-12-20T09:33:32;28.20;;;16.03;;
67498;SDS011;54345;42.670;23.218;2022-12-20T09:35:58;25.40;;;15.00;;
67498;SDS011;54345;42.670;23.218;2022-12-20T09:38:25;30.67;;;15.83;;
67498;SDS011;54345;42.670;23.218;2022-12-20T09:40:53;33.63;;;14.50;;
67498;SDS011;54345;42.670;23.218;2022-12-20T09:43:22;23.50;;;13.43;;
67498;SDS011;54345;42.670;23.218;2022-12-20T09:45:53;26.57;;;13.97;;
67498;SDS011;54345;42.670;23.218;2022-12-20T09:48:21;31.07;;;15.87;;
67498;SDS011;54345;42.670;23.218;2022-12-20T09:59:26;31.90;;;17.80;;
67498;SDS011;54345;42.670;23.218;2022-12-20T10:01:52;27.70;;;15.43;;
67498;SDS011;54345;42.670;23.218;2022-12-20T10:04:20;28.93;;;16.37;;
67498;SDS011;54345;42.670;23.218;2022-12-20T10:17:55;32.70;;;17.37;;
67498;SDS011;54345;42.670;23.218;2022-12-20T10:21:17;22.20;;;13.20;;
67498;SDS011;54345;42.670;23.218;2022-12-20T10:23:39;27.37;;;14.67;;
67498;SDS011;54345;42.670;23.218;2022-12-20T10:26:22;30.13;;;15.80;;
67498;SDS011;54345;42.670;23.218;2022-12-20T10:28:47;22.00;;;12.93;;
67498;SDS011;54345;42.670;23.218;2022-12-20T10:31:15;27.77;;;13.53;;
67498;SDS011;54345;42.670;23.218;2022-12-20T10:33:43;31.40;;;15.47;;
67498;SDS011;54345;42.670;23.218;2022-12-20T10:36:29;33.17;;;15.43;;
67498;SDS011;54345;42.670;23.218;2022-12-20T10:38:57;30.33;;;15.20;;
67498;SDS011;54345;42.670;23.218;2022-12-20T10:41:33;25.63;;;14.47;;
67498;SDS011;54345;42.670;23.218;2022-12-20T10:46:49;31.27;;;16.43;;
67498;SDS011;54345;42.670;23.218;2022-12-20T10:52:12;27.73;;;14.47;;
67498;SDS011;54345;42.670;23.218;2022-12-20T10:54:39;29.60;;;15.10;;
67498;SDS011;54345;42.670;23.218;2022-12-20T11:00:02;28.37;;;13.30;;
67498;SDS011;54345;42.670;23.218;2022-12-20T11:02:31;30.53;;;15.07;;
67498;SDS011;54345;42.670;23.218;2022-12-20T11:05:09;29.13;;;13.67;;
67498;SDS011;54345;42.670;23.218;2022-12-20T11:07:59;25.63;;;13.67;;
67498;SDS011;54345;42.670;23.218;2022-12-20T11:10:36;21.73;;;12.97;;
67498;SDS011;54345;42.670;23.218;2022-12-20T11:13:02;29.10;;;14.63;;
67498;SDS011;54345;42.670;23.218;2022-12-20T11:15:32;25.20;;;14.83;;
67498;SDS011;54345;42.670;23.218;2022-12-20T11:18:01;29.67;;;15.63;;
67498;SDS011;54345;42.670;23.218;2022-12-20T11:21:02;28.47;;;14.07;;
67498;SDS011;54345;42.670;23.218;2022-12-20T11:23:37;26.87;;;14.00;;
67498;SDS011;54345;42.670;23.218;2022-12-20T11:26:19;25.70;;;14.00;;
67498;SDS011;54345;42.670;23.218;2022-12-20T11:29:02;23.53;;;13.90;;
67498;SDS011;54345;42.670;23.218;2022-12-20T11:37:43;24.83;;;13.10;;
67498;SDS011;54345;42.670;23.218;2022-12-20T11:40:28;28.70;;;14.40;;
67498;SDS011;54345;42.670;23.218;2022-12-20T11:43:03;32.23;;;14.90;;
67498;SDS011;54345;42.670;23.218;2022-12-20T11:53:41;28.07;;;13.90;;
67498;SDS011;54345;42.670;23.218;2022-12-20T11:56:20;26.27;;;12.40;;
67498;SDS011;54345;42.670;23.218;2022-12-20T11:59:02;23.13;;;12.63;;
67498;SDS011;54345;42.670;23.218;2022-12-20T12:01:37;27.90;;;13.03;;
67498;SDS011;54345;42.670;23.218;2022-12-20T12:06:45;24.17;;;13.30;;
67498;SDS011;54345;42.670;23.218;2022-12-20T12:09:24;24.70;;;12.03;;
67498;SDS011;54345;42.670;23.218;2022-12-20T12:17:11;29.30;;;12.87;;
67498;SDS011;54345;42.670;23.218;2022-12-20T12:19:42;29.13;;;13.80;;
67498;SDS011;54345;42.670;23.218;2022-12-20T12:22:15;27.57;;;12.53;;
67498;SDS011;54345;42.670;23.218;2022-12-20T12:24:50;30.77;;;15.33;;
67498;SDS011;54345;42.670;23.218;2022-12-20T12:27:23;25.87;;;14.20;;
67498;SDS011;54345;42.670;23.218;2022-12-20T12:29:51;26.33;;;13.43;;
67498;SDS011;54345;42.670;23.218;2022-12-20T12:32:23;27.33;;;13.83;;
67498;SDS011;54345;42.670;23.218;2022-12-20T12:37:45;30.63;;;13.13;;
67498;SDS011;54345;42.670;23.218;2022-12-20T12:50:48;28.53;;;14.67;;
67498;SDS011;54345;42.670;23.218;2022-12-20T12:53:22;23.13;;;12.87;;
67498;SDS011;54345;42.670;23.218;2022-12-20T12:55:59;23.20;;;12.43;;
67498;SDS011;54345;42.670;23.218;2022-12-20T13:01:55;30.93;;;14.20;;
67498;SDS011;54345;42.670;23.218;2022-12-20T13:09:56;32.13;;;13.73;;
67498;SDS011;54345;42.670;23.218;2022-12-20T13:15:00;23.57;;;12.30;;
67498;SDS011;54345;42.670;23.218;2022-12-20T13:19:53;24.63;;;13.40;;
67498;SDS011;54345;42.670;23.218;2022-12-20T13:22:23;22.90;;;13.67;;
67498;SDS011;54345;42.670;23.218;2022-12-20T13:24:57;21.10;;;11.43;;
67498;SDS011;54345;42.670;23.218;2022-12-20T13:27:30;34.93;;;14.00;;
67498;SDS011;54345;42.670;23.218;2022-12-20T13:35:54;22.70;;;11.33;;
67498;SDS011;54345;42.670;23.218;2022-12-20T13:38:38;39.20;;;15.30;;
67498;SDS011;54345;42.670;23.218;2022-12-20T13:41:22;31.87;;;13.53;;
67498;SDS011;54345;42.670;23.218;2022-12-20T13:43:55;30.57;;;12.17;;
67498;SDS011;54345;42.670;23.218;2022-12-20T13:46:31;28.10;;;14.33;;
67498;SDS011;54345;42.670;23.218;2022-12-20T13:49:02;29.00;;;13.37;;
67498;SDS011;54345;42.670;23.218;2022-12-20T13:51:30;32.87;;;14.13;;
67498;SDS011;54345;42.670;23.218;2022-12-20T13:54:03;19.47;;;11.67;;
67498;SDS011;54345;42.670;23.218;2022-12-20T13:59:07;29.17;;;12.67;;
67498;SDS011;54345;42.670;23.218;2022-12-20T14:01:48;22.03;;;10.83;;
67498;SDS011;54345;42.670;23.218;2022-12-20T14:04:19;29.47;;;12.37;;
67498;SDS011;54345;42.670;23.218;2022-12-20T14:06:58;31.07;;;13.33;;
67498;SDS011;54345;42.670;23.218;2022-12-20T14:09:26;33.37;;;14.33;;
67498;SDS011;54345;42.670;23.218;2022-12-20T14:14:53;28.20;;;13.17;;
67498;SDS011;54345;42.670;23.218;2022-12-20T14:17:27;25.63;;;14.60;;
67498;SDS011;54345;42.670;23.218;2022-12-20T14:20:11;34.27;;;13.93;;
67498;SDS011;54345;42.670;23.218;2022-12-20T14:25:34;30.30;;;12.03;;
67498;SDS011;54345;42.670;23.218;2022-12-20T14:28:08;28.13;;;12.37;;
67498;SDS011;54345;42.670;23.218;2022-12-20T14:30:51;23.50;;;11.97;;
67498;SDS011;54345;42.670;23.218;2022-12-20T14:33:39;22.63;;;11.77;;
67498;SDS011;54345;42.670;23.218;2022-12-20T14:38:32;28.73;;;11.30;;
67498;SDS011;54345;42.670;23.218;2022-12-20T14:40:58;26.17;;;10.30;;
67498;SDS011;54345;42.670;23.218;2022-12-20T14:43:27;34.33;;;12.07;;
67498;SDS011;54345;42.670;23.218;2022-12-20T14:51:42;28.90;;;10.63;;
67498;SDS011;54345;42.670;23.218;2022-12-20T14:54:26;22.60;;;10.60;;
67498;SDS011;54345;42.670;23.218;2022-12-20T14:56:53;25.00;;;11.17;;
67498;SDS011;54345;42.670;23.218;2022-12-20T14:59:24;27.67;;;11.53;;
67498;SDS011;54345;42.670;23.218;2022-12-20T15:01:51;23.03;;;10.97;;
67498;SDS011;54345;42.670;23.218;2022-12-20T15:06:55;20.10;;;10.43;;
67498;SDS011;54345;42.670;23.218;2022-12-20T15:09:22;23.57;;;11.47;;
67498;SDS011;54345;42.670;23.218;2022-12-20T15:11:48;15.63;;;9.53;;
67498;SDS011;54345;42.670;23.218;2022-12-20T15:17:00;17.00;;;10.77;;
67498;SDS011;54345;42.670;23.218;2022-12-20T15:19:26;26.33;;;11.53;;
67498;SDS011;54345;42.670;23.218;2022-12-20T15:21:52;21.07;;;11.33;;
67498;SDS011;54345;42.670;23.218;2022-12-20T15:24:19;21.60;;;10.67;;
67498;SDS011;54345;42.670;23.218;2022-12-20T15:26:47;19.57;;;10.80;;
67498;SDS011;54345;42.670;23.218;2022-12-20T15:29:14;19.17;;;10.70;;
67498;SDS011;54345;42.670;23.218;2022-12-20T15:31:41;22.40;;;11.77;;
67498;SDS011;54345;42.670;23.218;2022-12-20T15:34:17;20.60;;;11.17;;
67498;SDS011;54345;42.670;23.218;2022-12-20T15:37:03;19.83;;;10.63;;
67498;SDS011;54345;42.670;23.218;2022-12-20T15:39:29;22.33;;;10.90;;
67498;SDS011;54345;42.670;23.218;2022-12-20T15:41:57;21.93;;;10.63;;
67498;SDS011;54345;42.670;23.218;2022-12-20T15:44:25;25.27;;;11.77;;
67498;SDS011;54345;42.670;23.218;2022-12-20T15:46:53;22.03;;;13.20;;
67498;SDS011;54345;42.670;23.218;2022-12-20T15:49:20;21.87;;;12.90;;
67498;SDS011;54345;42.670;23.218;2022-12-20T15:51:51;28.90;;;14.13;;
67498;SDS011;54345;42.670;23.218;2022-12-20T15:54:21;22.87;;;12.77;;
67498;SDS011;54345;42.670;23.218;2022-12-20T15:56:52;32.73;;;12.97;;
67498;SDS011;54345;42.670;23.218;2022-12-20T15:59:18;28.57;;;12.80;;
67498;SDS011;54345;42.670;23.218;2022-12-20T16:01:44;22.80;;;11.93;;
67498;SDS011;54345;42.670;23.218;2022-12-20T16:04:19;27.13;;;13.63;;
67498;SDS011;54345;42.670;23.218;2022-12-20T16:06:46;26.73;;;12.83;;
67498;SDS011;54345;42.670;23.218;2022-12-20T16:09:13;26.70;;;13.23;;
67498;SDS011;54345;42.670;23.218;2022-12-20T16:11:39;18.93;;;11.97;;
67498;SDS011;54345;42.670;23.218;2022-12-20T16:14:05;22.47;;;12.37;;
67498;SDS011;54345;42.670;23.218;2022-12-20T16:16:32;24.87;;;13.77;;
67498;SDS011;54345;42.670;23.218;2022-12-20T16:19:00;22.67;;;12.00;;
67498;SDS011;54345;42.670;23.218;2022-12-20T16:21:31;22.30;;;12.00;;
67498;SDS011;54345;42.670;23.218;2022-12-20T16:24:10;22.13;;;10.83;;